Time,TemperatureF,DewpointF,PressureIn,WindDirection,WindDirectionDegrees,WindSpeedMPH,WindSpeedGustMPH,Humidity,HourlyPrecipIn,Conditions,Clouds,dailyrainin,SolarRadiationWatts/m^2,SoftwareType,DateUTC
2013-01-27 00:01:00,6.0,1.0,-100.00,West,273,8.0,13.0,79,0.00,,,0.00,0.000000,,2013-01-27 05:01:00,
2013-01-27 00:22:00,6.0,1.0,-100.00,West,273,8.0,13.0,79,0.00,,,0.00,0.000000,,2013-01-27 05:22:00,
2013-01-27 00:32:00,6.0,1.0,-100.00,West,273,8.0,13.0,79,0.00,,,0.00,0.000000,,2013-01-27 05:32:00,
2013-01-27 00:42:00,6.0,1.0,-100.00,West,273,8.0,13.0,79,0.00,,,0.00,0.000000,,2013-01-27 05:42:00,
2013-01-27 00:52:00,6.0,1.0,-100.00,West,273,8.0,13.0,79,0.00,,,0.00,0.000000,,2013-01-27 05:52:00,
2013-01-27 01:01:00,6.0,1.0,-100.00,West,271,8.0,16.0,80,0.00,,,0.00,0.000000,,2013-01-27 06:01:00,
2013-01-27 01:21:00,6.0,1.0,-100.00,West,271,8.0,16.0,80,0.00,,,0.00,0.000000,,2013-01-27 06:21:00,
2013-01-27 01:32:00,6.0,1.0,-100.00,West,271,8.0,16.0,80,0.00,,,0.00,0.000000,,2013-01-27 06:32:00,
2013-01-27 01:42:00,6.0,1.0,-100.00,West,271,8.0,16.0,80,0.00,,,0.00,0.000000,,2013-01-27 06:42:00,
2013-01-27 01:52:00,6.0,1.0,-100.00,West,271,8.0,16.0,80,0.00,,,0.00,0.000000,,2013-01-27 06:52:00,
2013-01-27 02:01:00,5.0,0.0,-100.00,West,268,6.0,15.0,79,0.00,,,0.00,0.000000,,2013-01-27 07:01:00,
2013-01-27 02:21:00,5.0,0.0,-100.00,West,268,6.0,15.0,79,0.00,,,0.00,0.000000,,2013-01-27 07:21:00,
2013-01-27 02:32:00,5.0,0.0,-100.00,West,268,6.0,15.0,79,0.00,,,0.00,0.000000,,2013-01-27 07:32:00,
2013-01-27 02:42:00,5.0,0.0,-100.00,West,268,6.0,15.0,79,0.00,,,0.00,0.000000,,2013-01-27 07:42:00,
2013-01-27 02:52:00,5.0,0.0,-100.00,West,268,6.0,15.0,79,0.00,,,0.00,0.000000,,2013-01-27 07:52:00,
2013-01-27 03:01:00,4.0,-1.0,-100.00,West,271,7.0,16.0,79,0.00,,,0.00,0.000000,,2013-01-27 08:01:00,
2013-01-27 03:32:00,4.0,-1.0,-100.00,West,271,7.0,16.0,79,0.00,,,0.00,0.000000,,2013-01-27 08:32:00,
2013-01-27 03:42:00,4.0,-1.0,-100.00,West,271,7.0,16.0,79,0.00,,,0.00,0.000000,,2013-01-27 08:42:00,
2013-01-27 03:52:00,4.0,-1.0,-100.00,West,271,7.0,16.0,79,0.00,,,0.00,0.000000,,2013-01-27 08:52:00,
2013-01-27 04:01:00,4.0,-1.0,-100.00,WSW,247,1.0,11.0,80,0.00,,,0.00,0.000000,,2013-01-27 09:01:00,
2013-01-27 04:32:00,4.0,-1.0,-100.00,WSW,247,1.0,11.0,80,0.00,,,0.00,0.000000,,2013-01-27 09:32:00,
2013-01-27 04:42:00,4.0,-1.0,-100.00,WSW,247,1.0,11.0,80,0.00,,,0.00,0.000000,,2013-01-27 09:42:00,
2013-01-27 04:52:00,4.0,-1.0,-100.00,WSW,247,1.0,11.0,80,0.00,,,0.00,0.000000,,2013-01-27 09:52:00,
2013-01-27 05:01:00,2.0,-3.0,-100.00,SW,231,2.0,8.0,79,0.00,,,0.00,0.000000,,2013-01-27 10:01:00,
2013-01-27 05:21:00,2.0,-3.0,-100.00,SW,231,2.0,8.0,79,0.00,,,0.00,0.000000,,2013-01-27 10:21:00,
2013-01-27 05:32:00,2.0,-3.0,-100.00,SW,231,2.0,8.0,79,0.00,,,0.00,0.000000,,2013-01-27 10:32:00,
2013-01-27 05:42:00,2.0,-3.0,-100.00,SW,231,2.0,8.0,79,0.00,,,0.00,0.000000,,2013-01-27 10:42:00,
2013-01-27 05:52:00,2.0,-3.0,-100.00,SW,231,2.0,8.0,79,0.00,,,0.00,0.000000,,2013-01-27 10:52:00,
2013-01-27 06:01:00,2.0,-3.0,-100.00,West,268,5.0,12.0,78,0.00,,,0.00,0.000000,,2013-01-27 11:01:00,
2013-01-27 06:22:00,2.0,-3.0,-100.00,West,268,5.0,12.0,78,0.00,,,0.00,0.000000,,2013-01-27 11:22:00,
2013-01-27 06:32:00,2.0,-3.0,-100.00,West,268,5.0,12.0,78,0.00,,,0.00,0.000000,,2013-01-27 11:32:00,
2013-01-27 06:42:00,2.0,-3.0,-100.00,West,268,5.0,12.0,78,0.00,,,0.00,0.000000,,2013-01-27 11:42:00,
2013-01-27 06:52:00,2.0,-3.0,-100.00,West,268,5.0,12.0,78,0.00,,,0.00,0.000000,,2013-01-27 11:52:00,
2013-01-27 07:01:00,0.0,-5.0,-100.00,WNW,285,4.0,12.0,77,0.00,,,0.00,0.000000,,2013-01-27 12:01:00,
2013-01-27 07:22:00,0.0,-5.0,-100.00,WNW,285,4.0,12.0,77,0.00,,,0.00,0.000000,,2013-01-27 12:22:00,
2013-01-27 07:33:00,0.0,-5.0,-100.00,WNW,285,4.0,12.0,77,0.00,,,0.00,0.000000,,2013-01-27 12:33:00,
2013-01-27 07:42:00,0.0,-5.0,-100.00,WNW,285,4.0,12.0,77,0.00,,,0.00,0.000000,,2013-01-27 12:42:00,
2013-01-27 07:52:00,0.0,-5.0,-100.00,WNW,285,4.0,12.0,77,0.00,,,0.00,0.000000,,2013-01-27 12:52:00,
2013-01-27 08:01:00,-5.0,-12.0,-100.00,SE,137,0.0,9.0,72,0.00,,,0.00,7.000000,,2013-01-27 13:01:00,
2013-01-27 08:22:00,-5.0,-12.0,-100.00,SE,137,0.0,9.0,72,0.00,,,0.00,7.000000,,2013-01-27 13:22:00,
2013-01-27 08:32:00,-5.0,-12.0,-100.00,SE,137,0.0,9.0,72,0.00,,,0.00,7.000000,,2013-01-27 13:32:00,
2013-01-27 08:42:00,-5.0,-12.0,-100.00,SE,137,0.0,9.0,72,0.00,,,0.00,7.000000,,2013-01-27 13:42:00,
2013-01-27 08:52:00,-5.0,-12.0,-100.00,SE,137,0.0,9.0,72,0.00,,,0.00,7.000000,,2013-01-27 13:52:00,
2013-01-27 09:01:00,5.0,-2.0,-100.00,ENE,66,0.0,2.0,71,0.00,,,0.00,126.000000,,2013-01-27 14:01:00,
2013-01-27 09:53:00,5.0,-2.0,-100.00,ENE,66,0.0,2.0,71,0.00,,,0.00,126.000000,,2013-01-27 14:53:00,
2013-01-27 10:01:00,9.0,-6.0,-100.00,West,267,4.0,8.0,50,0.00,,,0.00,323.000000,,2013-01-27 15:01:00,
2013-01-27 10:33:00,9.0,-6.0,-100.00,West,267,4.0,8.0,50,0.00,,,0.00,323.000000,,2013-01-27 15:33:00,
2013-01-27 10:42:00,9.0,-6.0,-100.00,West,267,4.0,8.0,50,0.00,,,0.00,323.000000,,2013-01-27 15:42:00,
2013-01-27 10:53:00,9.0,-6.0,-100.00,West,267,4.0,8.0,50,0.00,,,0.00,323.000000,,2013-01-27 15:53:00,
2013-01-27 11:01:00,12.0,-7.0,-100.00,WSW,255,3.0,11.0,42,0.00,,,0.00,471.000000,,2013-01-27 16:01:00,
2013-01-27 11:33:00,12.0,-7.0,-100.00,WSW,255,3.0,11.0,42,0.00,,,0.00,471.000000,,2013-01-27 16:33:00,
2013-01-27 11:42:00,12.0,-7.0,-100.00,WSW,255,3.0,11.0,42,0.00,,,0.00,471.000000,,2013-01-27 16:42:00,
2013-01-27 11:53:00,12.0,-7.0,-100.00,WSW,255,3.0,11.0,42,0.00,,,0.00,471.000000,,2013-01-27 16:53:00,
2013-01-27 12:01:00,14.0,-9.0,-100.00,West,260,4.0,12.0,35,0.00,,,0.00,533.000000,,2013-01-27 17:01:00,
2013-01-27 12:32:00,14.0,-9.0,-100.00,West,260,4.0,12.0,35,0.00,,,0.00,533.000000,,2013-01-27 17:32:00,
2013-01-27 12:42:00,14.0,-9.0,-100.00,West,260,4.0,12.0,35,0.00,,,0.00,533.000000,,2013-01-27 17:42:00,
2013-01-27 12:53:00,14.0,-9.0,-100.00,West,260,4.0,12.0,35,0.00,,,0.00,533.000000,,2013-01-27 17:53:00,
2013-01-27 13:01:00,16.0,-8.0,-100.00,West,276,6.0,12.0,33,0.00,,,0.00,539.000000,,2013-01-27 18:01:00,
2013-01-27 13:32:00,16.0,-8.0,-100.00,West,276,6.0,12.0,33,0.00,,,0.00,539.000000,,2013-01-27 18:32:00,
2013-01-27 13:42:00,16.0,-8.0,-100.00,West,276,6.0,12.0,33,0.00,,,0.00,539.000000,,2013-01-27 18:42:00,
2013-01-27 13:53:00,16.0,-8.0,-100.00,West,276,6.0,12.0,33,0.00,,,0.00,539.000000,,2013-01-27 18:53:00,
2013-01-27 14:01:00,17.0,-8.0,-100.00,WSW,240,3.0,11.0,32,0.00,,,-99.99,322.000000,,2013-01-27 19:01:00,
2013-01-27 14:22:00,17.0,-8.0,-100.00,WSW,240,3.0,11.0,32,0.00,,,-99.99,322.000000,,2013-01-27 19:22:00,
2013-01-27 14:33:00,17.0,-8.0,-100.00,WSW,240,3.0,11.0,32,0.00,,,-99.99,322.000000,,2013-01-27 19:33:00,
2013-01-27 14:42:00,17.0,-8.0,-100.00,WSW,240,3.0,11.0,32,0.00,,,-99.99,322.000000,,2013-01-27 19:42:00,
2013-01-27 14:52:00,17.0,-8.0,-100.00,WSW,240,3.0,11.0,32,0.00,,,-99.99,322.000000,,2013-01-27 19:52:00,
2013-01-27 15:01:00,15.0,-10.0,-100.00,WNW,286,4.0,10.0,31,0.00,,,0.00,235.000000,,2013-01-27 20:01:00,
2013-01-27 15:22:00,15.0,-10.0,-100.00,WNW,286,4.0,10.0,31,0.00,,,0.00,235.000000,,2013-01-27 20:22:00,
2013-01-27 15:33:00,15.0,-10.0,-100.00,WNW,286,4.0,10.0,31,0.00,,,0.00,235.000000,,2013-01-27 20:33:00,
2013-01-27 15:42:00,15.0,-10.0,-100.00,WNW,286,4.0,10.0,31,0.00,,,0.00,235.000000,,2013-01-27 20:42:00,
2013-01-27 15:52:00,15.0,-10.0,-100.00,WNW,286,4.0,10.0,31,0.00,,,0.00,235.000000,,2013-01-27 20:52:00,
2013-01-27 16:01:00,14.0,-10.0,-100.00,WNW,284,4.0,11.0,33,0.00,,,0.00,42.000000,,2013-01-27 21:01:00,
2013-01-27 16:33:00,14.0,-10.0,-100.00,WNW,284,4.0,11.0,33,0.00,,,0.00,42.000000,,2013-01-27 21:33:00,
2013-01-27 16:43:00,14.0,-10.0,-100.00,WNW,284,4.0,11.0,33,0.00,,,0.00,42.000000,,2013-01-27 21:43:00,
2013-01-27 16:52:00,14.0,-10.0,-100.00,WNW,284,4.0,11.0,33,0.00,,,0.00,42.000000,,2013-01-27 21:52:00,
2013-01-27 17:01:00,10.0,-8.0,-100.00,SSW,200,0.0,10.0,44,0.00,,,0.00,11.000000,,2013-01-27 22:01:00,
2013-01-27 17:22:00,10.0,-8.0,-100.00,SSW,200,0.0,10.0,44,0.00,,,0.00,11.000000,,2013-01-27 22:22:00,
2013-01-27 17:33:00,10.0,-8.0,-100.00,SSW,200,0.0,10.0,44,0.00,,,0.00,11.000000,,2013-01-27 22:33:00,
2013-01-27 17:42:00,10.0,-8.0,-100.00,SSW,200,0.0,10.0,44,0.00,,,0.00,11.000000,,2013-01-27 22:42:00,
2013-01-27 17:52:00,10.0,-8.0,-100.00,SSW,200,0.0,10.0,44,0.00,,,0.00,11.000000,,2013-01-27 22:52:00,
2013-01-27 18:01:00,3.0,-9.0,-100.00,ESE,117,0.0,3.0,56,0.00,,,0.00,0.000000,,2013-01-27 23:01:00,
2013-01-27 18:22:00,3.0,-9.0,-100.00,ESE,117,0.0,3.0,56,0.00,,,0.00,0.000000,,2013-01-27 23:22:00,
2013-01-27 18:32:00,3.0,-9.0,-100.00,ESE,117,0.0,3.0,56,0.00,,,0.00,0.000000,,2013-01-27 23:32:00,
2013-01-27 18:42:00,3.0,-9.0,-100.00,ESE,117,0.0,3.0,56,0.00,,,0.00,0.000000,,2013-01-27 23:42:00,
2013-01-27 18:53:00,3.0,-9.0,-100.00,ESE,117,0.0,3.0,56,0.00,,,0.00,0.000000,,2013-01-27 23:53:00,
2013-01-27 19:01:00,0.0,-10.0,-100.00,East,79,2.0,3.0,62,0.00,,,0.00,0.000000,,2013-01-28 00:01:00,
2013-01-27 19:22:00,0.0,-10.0,-100.00,East,79,2.0,3.0,62,0.00,,,0.00,0.000000,,2013-01-28 00:22:00,
2013-01-27 19:33:00,0.0,-10.0,-100.00,East,79,2.0,3.0,62,0.00,,,0.00,0.000000,,2013-01-28 00:33:00,
2013-01-27 19:42:00,0.0,-10.0,-100.00,East,79,2.0,3.0,62,0.00,,,0.00,0.000000,,2013-01-28 00:42:00,
2013-01-27 19:52:00,0.0,-10.0,-100.00,East,79,2.0,3.0,62,0.00,,,0.00,0.000000,,2013-01-28 00:52:00,
2013-01-27 20:01:00,-1.0,-10.0,-100.00,East,85,1.0,3.0,66,0.00,,,0.00,0.000000,,2013-01-28 01:01:00,
2013-01-27 20:33:00,-1.0,-10.0,-100.00,East,85,1.0,3.0,66,0.00,,,0.00,0.000000,,2013-01-28 01:33:00,
2013-01-27 20:42:00,-1.0,-10.0,-100.00,East,85,1.0,3.0,66,0.00,,,0.00,0.000000,,2013-01-28 01:42:00,
2013-01-27 20:52:00,-1.0,-10.0,-100.00,East,85,1.0,3.0,66,0.00,,,0.00,0.000000,,2013-01-28 01:52:00,
2013-01-27 21:01:00,-1.0,-9.0,-100.00,East,86,1.0,4.0,69,0.00,,,0.00,0.000000,,2013-01-28 02:01:00,
2013-01-27 21:32:00,-1.0,-9.0,-100.00,East,86,1.0,4.0,69,0.00,,,0.00,0.000000,,2013-01-28 02:32:00,
2013-01-27 21:42:00,-1.0,-9.0,-100.00,East,86,1.0,4.0,69,0.00,,,0.00,0.000000,,2013-01-28 02:42:00,
2013-01-27 21:53:00,-1.0,-9.0,-100.00,East,86,1.0,4.0,69,0.00,,,0.00,0.000000,,2013-01-28 02:53:00,
2013-01-27 22:01:00,-1.0,-8.0,-100.00,ESE,102,1.0,3.0,71,0.00,,,0.00,0.000000,,2013-01-28 03:01:00,
2013-01-27 22:22:00,-1.0,-8.0,-100.00,ESE,102,1.0,3.0,71,0.00,,,0.00,0.000000,,2013-01-28 03:22:00,
2013-01-27 22:32:00,-1.0,-8.0,-100.00,ESE,102,1.0,3.0,71,0.00,,,0.00,0.000000,,2013-01-28 03:32:00,
2013-01-27 22:42:00,-1.0,-8.0,-100.00,ESE,102,1.0,3.0,71,0.00,,,0.00,0.000000,,2013-01-28 03:42:00,
2013-01-27 22:53:00,-1.0,-8.0,-100.00,ESE,102,1.0,3.0,71,0.00,,,0.00,0.000000,,2013-01-28 03:53:00,
2013-01-27 23:01:00,0.0,-7.0,-100.00,East,97,1.0,4.0,71,0.00,,,0.00,0.000000,,2013-01-28 04:01:00,
2013-01-27 23:22:00,0.0,-7.0,-100.00,East,97,1.0,4.0,71,0.00,,,0.00,0.000000,,2013-01-28 04:22:00,
2013-01-27 23:32:00,0.0,-7.0,-100.00,East,97,1.0,4.0,71,0.00,,,0.00,0.000000,,2013-01-28 04:32:00,
2013-01-27 23:42:00,0.0,-7.0,-100.00,East,97,1.0,4.0,71,0.00,,,0.00,0.000000,,2013-01-28 04:42:00,
2013-01-27 23:52:00,0.0,-7.0,-100.00,East,97,1.0,4.0,71,0.00,,,0.00,0.000000,,2013-01-28 04:52:00,